createdAt,value
2022-08-09T00:00:58.001Z,65.45
2022-08-09T00:04:05.620Z,65.75
2022-08-09T00:06:19.472Z,66.40
2022-08-09T00:08:51.870Z,67.12
2022-08-09T00:11:24.797Z,67.39
2022-08-09T00:13:53.281Z,67.25
2022-08-09T00:16:26.429Z,67.49
2022-08-09T00:19:09.373Z,67.68
2022-08-09T00:21:43.180Z,68.19
2022-08-09T00:24:24.705Z,68.51
2022-08-09T00:26:56.072Z,68.79
2022-08-09T00:29:39.738Z,69.00
2022-08-09T00:32:26.630Z,69.04
2022-08-09T00:35:03.340Z,69.52
2022-08-09T00:37:32.503Z,69.78
2022-08-09T00:40:13.434Z,70.11
2022-08-09T00:44:19.798Z,70.42
2022-08-09T00:45:34.864Z,70.55
2022-08-09T00:48:04.487Z,70.71
2022-08-09T00:50:33.805Z,71.16
2022-08-09T00:53:10.317Z,71.48
2022-08-09T00:56:05.226Z,71.87
2022-08-09T00:58:31.560Z,72.05
2022-08-09T01:01:00.374Z,72.38
2022-08-09T01:03:32.773Z,72.42
2022-08-09T01:06:54.479Z,72.41
2022-08-09T01:09:48.465Z,72.61
2022-08-09T01:12:32.722Z,72.91
2022-08-09T01:15:06.098Z,73.18
2022-08-09T01:17:57.791Z,73.35
2022-08-09T01:20:34.792Z,73.50
2022-08-09T01:24:02.902Z,73.67
2022-08-09T01:27:07.913Z,73.93
2022-08-09T01:29:55.711Z,74.46
2022-08-09T01:32:33.885Z,74.37
2022-08-09T01:35:28.990Z,74.66
2022-08-09T01:38:09.697Z,74.82
2022-08-09T01:40:42.963Z,74.75
2022-08-09T01:43:12.061Z,75.13
2022-08-09T01:45:46.358Z,75.53
2022-08-09T01:48:24.055Z,75.86
2022-08-09T01:50:59.881Z,76.36
2022-08-09T01:53:29.260Z,76.84
2022-08-09T01:56:11.434Z,77.56
2022-08-09T01:58:40.470Z,77.76
2022-08-09T02:01:09.918Z,78.23
2022-08-09T02:03:48.233Z,78.93
2022-08-09T02:06:38.779Z,79.47
2022-08-09T02:09:16.418Z,79.71
2022-08-09T02:11:45.315Z,80.11
2022-08-09T02:14:26.207Z,80.40
2022-08-09T02:17:15.434Z,80.53
2022-08-09T02:19:45.037Z,80.70
2022-08-09T02:22:41.009Z,80.95
2022-08-09T02:25:23.171Z,80.50
2022-08-09T02:28:05.155Z,80.63
2022-08-09T02:30:39.199Z,80.25
2022-08-09T02:33:17.008Z,79.87
2022-08-09T02:36:02.860Z,79.46
2022-08-09T02:38:36.375Z,79.61
2022-08-09T02:41:11.132Z,79.60
2022-08-09T02:43:54.736Z,79.07
2022-08-09T02:46:27.892Z,79.23
2022-08-09T02:49:03.045Z,79.26
2022-08-09T02:51:37.039Z,79.63
2022-08-09T02:54:13.996Z,79.98
2022-08-09T02:56:51.272Z,80.27
2022-08-09T02:59:25.818Z,80.52
2022-08-09T03:02:05.893Z,80.84
2022-08-09T03:04:36.269Z,80.92
2022-08-09T03:07:12.286Z,81.33
2022-08-09T03:09:56.372Z,81.19
2022-08-09T03:12:26.040Z,81.53
2022-08-09T03:14:57.419Z,81.80
2022-08-09T03:17:27.103Z,82.15
2022-08-09T03:20:05.000Z,82.71
2022-08-09T03:22:41.523Z,83.14
2022-08-09T03:25:26.125Z,83.55
2022-08-09T03:28:01.853Z,84.01
2022-08-09T03:30:34.283Z,83.96
2022-08-09T03:33:17.753Z,83.82
2022-08-09T03:36:14.021Z,83.33
2022-08-09T03:38:43.080Z,82.97
2022-08-09T03:41:15.592Z,82.51
2022-08-09T03:44:03.265Z,82.32
2022-08-09T03:46:33.833Z,82.20
2022-08-09T03:49:04.385Z,81.92
2022-08-09T03:51:55.455Z,81.40
2022-08-09T03:54:38.553Z,81.04
2022-08-09T03:57:17.916Z,80.96
2022-08-09T03:59:54.771Z,80.81
2022-08-09T04:02:29.119Z,80.34
2022-08-09T04:05:05.813Z,79.98
2022-08-09T04:07:52.843Z,79.76
2022-08-09T04:10:29.133Z,79.61
2022-08-09T04:13:04.020Z,79.05
2022-08-09T04:15:52.392Z,79.23
2022-08-09T04:18:21.471Z,79.18
2022-08-09T04:20:51.228Z,78.54
2022-08-09T04:23:24.475Z,77.55
2022-08-09T04:25:54.167Z,76.79
2022-08-09T04:28:30.720Z,76.06
2022-08-09T04:31:09.883Z,75.14
2022-08-09T04:33:52.552Z,74.39
2022-08-09T04:36:27.683Z,74.22
2022-08-09T04:39:01.535Z,73.65
2022-08-09T04:41:32.364Z,73.42
2022-08-09T04:44:11.098Z,73.22
2022-08-09T04:46:58.932Z,72.69
2022-08-09T04:49:53.846Z,72.57
2022-08-09T04:52:27.482Z,72.47
2022-08-09T04:54:57.087Z,71.97
2022-08-09T04:57:25.407Z,71.81
2022-08-09T04:59:55.813Z,70.24
2022-08-09T05:02:27.530Z,69.74
2022-08-09T05:04:56.154Z,69.60
2022-08-09T05:07:29.278Z,68.35
2022-08-09T05:10:01.620Z,68.52
2022-08-09T05:12:31.140Z,68.80
2022-08-09T05:15:01.403Z,68.71
2022-08-09T05:18:38.909Z,68.58
2022-08-09T05:20:20.115Z,67.39
2022-08-09T05:23:53.812Z,67.22
2022-08-09T05:25:38.198Z,66.97
2022-08-09T05:28:06.236Z,66.77
2022-08-09T05:30:34.573Z,65.21
2022-08-09T05:33:04.720Z,64.79
2022-08-09T05:35:45.028Z,65.31
2022-08-09T05:38:22.167Z,65.63
2022-08-09T05:40:50.796Z,65.19
2022-08-09T05:43:20.638Z,65.29
2022-08-09T05:45:55.947Z,64.04
2022-08-09T05:48:32.728Z,62.11
2022-08-09T05:51:29.951Z,61.54
2022-08-09T05:53:56.530Z,61.32
2022-08-09T05:56:26.939Z,59.96
2022-08-09T05:58:58.701Z,58.99
2022-08-09T06:01:33.599Z,58.45
2022-08-09T06:04:10.401Z,58.46
2022-08-09T06:06:45.151Z,57.62
2022-08-09T06:09:23.221Z,56.81
2022-08-09T06:12:06.587Z,56.39
2022-08-09T06:14:35.908Z,55.72
2022-08-09T06:17:05.168Z,55.61
2022-08-09T06:19:37.648Z,55.64
2022-08-09T06:22:06.970Z,55.10
2022-08-09T06:24:43.617Z,55.11
2022-08-09T06:27:11.294Z,54.96
2022-08-09T06:29:48.041Z,55.14
2022-08-09T06:33:00.111Z,53.96
2022-08-09T06:35:15.153Z,52.45
2022-08-09T06:37:53.103Z,51.34
2022-08-09T06:40:30.709Z,51.81
2022-08-09T06:43:01.263Z,51.82
2022-08-09T06:46:06.593Z,51.59
2022-08-09T06:48:17.784Z,50.85
2022-08-09T06:50:59.464Z,48.99
2022-08-09T06:53:27.618Z,49.58
2022-08-09T06:56:07.426Z,49.62
2022-08-09T07:00:47.569Z,49.46
2022-08-09T07:01:35.763Z,48.96
2022-08-09T07:04:19.677Z,48.02
2022-08-09T07:06:53.309Z,46.12
2022-08-09T07:09:54.991Z,46.21
2022-08-09T07:12:13.737Z,44.79
2022-08-09T07:14:51.153Z,44.67
2022-08-09T07:17:20.334Z,44.23
2022-08-09T07:19:50.995Z,42.57
2022-08-09T07:22:27.445Z,40.97
2022-08-09T07:25:05.585Z,39.26
2022-08-09T07:27:43.094Z,38.04
2022-08-09T07:30:21.763Z,37.12
2022-08-09T07:32:53.056Z,35.60
2022-08-09T07:35:23.323Z,34.56
2022-08-09T07:37:54.024Z,34.09
2022-08-09T07:40:37.422Z,33.49
2022-08-09T07:43:16.839Z,33.63
2022-08-09T07:45:45.053Z,34.24
2022-08-09T07:48:29.449Z,32.81
2022-08-09T07:51:10.262Z,32.89
2022-08-09T07:54:04.799Z,34.25
2022-08-09T07:56:37.052Z,33.96
2022-08-09T07:59:21.219Z,33.14
2022-08-09T08:02:01.387Z,33.01
2022-08-09T08:04:31.804Z,32.82
2022-08-09T08:07:15.199Z,33.32
2022-08-09T08:09:59.748Z,33.84
2022-08-09T08:12:35.756Z,31.97
2022-08-09T08:15:07.415Z,32.25
2022-08-09T08:17:54.780Z,32.29
2022-08-09T08:20:30.776Z,32.14
2022-08-09T08:23:06.477Z,31.37
2022-08-09T08:25:50.399Z,31.69
2022-08-09T08:28:35.263Z,31.87
2022-08-09T08:31:14.025Z,32.41
2022-08-09T08:33:52.468Z,32.31
2022-08-09T08:36:28.963Z,32.87
2022-08-09T08:38:58.375Z,33.88
2022-08-09T08:41:42.113Z,32.24
2022-08-09T08:44:16.594Z,32.86
2022-08-09T08:47:03.248Z,30.89
2022-08-09T08:49:38.914Z,30.56
2022-08-09T08:52:58.521Z,30.26
2022-08-09T08:55:06.336Z,30.34
2022-08-09T08:57:35.894Z,30.33
2022-08-09T09:00:17.049Z,30.35
2022-08-09T09:03:00.374Z,29.90
2022-08-09T09:06:00.008Z,29.59
2022-08-09T09:08:30.419Z,29.19
2022-08-09T09:11:06.251Z,27.72
2022-08-09T09:13:50.196Z,26.99
2022-08-09T09:16:30.225Z,27.66
2022-08-09T09:22:04.194Z,26.78
2022-08-09T09:24:38.848Z,25.33
2022-08-09T09:27:09.380Z,25.20
2022-08-09T09:32:38.126Z,25.06
2022-08-09T09:35:09.963Z,24.63
2022-08-09T09:37:40.722Z,25.03
2022-08-09T09:40:11.695Z,23.52
2022-08-09T09:42:46.366Z,24.19
2022-08-09T09:45:25.740Z,24.32
2022-08-09T09:47:58.547Z,24.83
2022-08-09T09:50:51.020Z,25.52
2022-08-09T09:53:57.339Z,25.55
2022-08-09T09:56:20.141Z,26.75
2022-08-09T09:59:02.339Z,26.06
2022-08-09T10:01:37.452Z,27.21
2022-08-09T10:04:16.268Z,27.12
2022-08-09T10:06:51.785Z,26.78
2022-08-09T10:09:23.889Z,26.96
2022-08-09T10:12:14.474Z,27.79
2022-08-09T10:14:49.439Z,27.04
2022-08-09T10:17:39.610Z,27.77
2022-08-09T10:20:27.111Z,27.70
2022-08-09T10:23:17.177Z,28.48
2022-08-09T10:26:07.713Z,28.50
2022-08-09T10:28:38.412Z,28.59
2022-08-09T10:34:09.610Z,29.09
2022-08-09T10:36:45.245Z,29.59
2022-08-09T10:39:15.620Z,29.94
2022-08-09T10:41:47.754Z,29.83
2022-08-09T10:44:25.401Z,30.70
2022-08-09T10:48:19.203Z,30.28
2022-08-09T10:51:13.723Z,30.97
2022-08-09T10:54:04.699Z,31.91
2022-08-09T10:56:38.698Z,31.66
2022-08-09T10:59:30.806Z,31.55
2022-08-09T11:03:14.732Z,32.09
2022-08-09T11:05:25.297Z,31.89
2022-08-09T11:08:17.747Z,31.45
2022-08-09T11:11:00.761Z,31.90
2022-08-09T11:13:50.661Z,31.56
2022-08-09T11:16:39.143Z,31.47
2022-08-09T11:19:10.290Z,31.99
2022-08-09T11:22:10.504Z,31.26
2022-08-09T11:25:15.074Z,30.65
2022-08-09T11:28:04.602Z,31.37
2022-08-09T11:30:36.142Z,30.15
2022-08-09T11:33:05.938Z,29.42
2022-08-09T11:35:53.613Z,29.31
2022-08-09T11:38:32.196Z,29.65
2022-08-09T11:41:14.219Z,29.68
2022-08-09T11:43:49.089Z,29.72
2022-08-09T11:46:18.473Z,29.74
2022-08-09T11:49:05.102Z,30.27
2022-08-09T11:53:02.718Z,29.67
2022-08-09T11:55:51.602Z,29.50
2022-08-09T11:58:30.497Z,30.05
2022-08-09T12:01:03.616Z,29.26
2022-08-09T12:03:56.114Z,29.01
2022-08-09T12:06:32.207Z,29.04
2022-08-09T12:09:19.513Z,28.63
2022-08-09T12:12:05.937Z,28.31
2022-08-09T12:15:03.873Z,28.94
2022-08-09T12:17:34.497Z,28.92
2022-08-09T12:20:21.694Z,29.16
2022-08-09T12:22:55.975Z,28.88
2022-08-09T12:25:37.685Z,29.25
2022-08-09T12:29:12.697Z,28.47
2022-08-09T12:31:58.113Z,28.88
2022-08-09T12:34:05.259Z,29.07
2022-08-09T12:36:34.086Z,29.79
2022-08-09T12:39:14.664Z,29.87
2022-08-09T12:41:42.617Z,30.19
2022-08-09T12:44:13.148Z,30.51
2022-08-09T12:46:49.911Z,29.74
2022-08-09T12:49:20.941Z,30.16
2022-08-09T12:52:02.669Z,30.23
2022-08-09T12:56:14.893Z,30.56
2022-08-09T12:57:47.054Z,31.06
2022-08-09T13:00:25.145Z,31.48
2022-08-09T13:03:00.688Z,31.71
2022-08-09T13:05:51.475Z,31.66
2022-08-09T13:08:40.221Z,32.87
2022-08-09T13:11:23.133Z,33.35
2022-08-09T13:14:41.540Z,33.20
2022-08-09T13:16:54.324Z,33.67
2022-08-09T13:20:07.411Z,33.51
2022-08-09T13:22:35.952Z,34.28
2022-08-09T13:25:14.308Z,33.82
2022-08-09T13:27:54.305Z,33.55
2022-08-09T13:31:10.842Z,33.31
2022-08-09T13:33:23.189Z,33.07
2022-08-09T13:36:24.421Z,33.45
2022-08-09T13:38:55.688Z,33.39
2022-08-09T13:41:53.963Z,32.88
2022-08-09T13:44:16.845Z,33.15
2022-08-09T13:47:26.575Z,33.83
2022-08-09T13:49:39.701Z,34.04
2022-08-09T13:52:24.662Z,32.74
2022-08-09T13:54:59.389Z,32.30
2022-08-09T13:57:36.702Z,33.04
2022-08-09T14:00:19.566Z,33.74
2022-08-09T14:03:03.910Z,34.33
2022-08-09T14:06:01.460Z,34.45
2022-08-09T14:08:28.377Z,34.55
2022-08-09T14:10:57.157Z,34.15
2022-08-09T14:14:15.643Z,34.97
2022-08-09T14:16:16.781Z,35.43
2022-08-09T14:18:49.764Z,36.60
2022-08-09T14:21:23.067Z,37.29
2022-08-09T14:23:55.214Z,37.66
2022-08-09T14:26:30.517Z,37.68
2022-08-09T14:29:08.284Z,37.00
2022-08-09T14:31:54.941Z,37.24
2022-08-09T14:34:31.956Z,37.11
2022-08-09T14:37:02.180Z,37.62
2022-08-09T14:39:45.445Z,37.67
2022-08-09T14:42:30.469Z,37.29
2022-08-09T14:46:38.970Z,37.77
2022-08-09T14:47:57.408Z,37.88
2022-08-09T14:50:33.178Z,37.52
2022-08-09T14:53:11.054Z,37.48
2022-08-09T14:55:41.954Z,37.54
2022-08-09T14:58:11.171Z,36.52
2022-08-09T15:00:42.550Z,36.95
2022-08-09T15:03:19.988Z,37.20
2022-08-09T15:05:51.442Z,37.94
2022-08-09T15:08:26.387Z,38.51
2022-08-09T15:11:01.543Z,38.60
2022-08-09T15:13:48.663Z,37.77
2022-08-09T15:16:20.950Z,38.11
2022-08-09T15:18:49.690Z,38.14
2022-08-09T15:22:00.840Z,38.43
2022-08-09T15:24:12.674Z,38.66
2022-08-09T15:26:46.519Z,38.79
2022-08-09T15:30:55.476Z,38.89
2022-08-09T15:32:03.819Z,38.82
2022-08-09T15:34:35.469Z,38.73
2022-08-09T15:37:37.910Z,38.30
2022-08-09T15:40:15.304Z,38.69
2022-08-09T15:42:48.955Z,39.14
2022-08-09T15:45:21.700Z,39.28
2022-08-09T15:48:05.074Z,39.94
2022-08-09T15:50:39.275Z,40.66
2022-08-09T15:53:17.940Z,40.53
2022-08-09T15:56:21.148Z,40.87
2022-08-09T15:58:43.483Z,41.15
2022-08-09T16:01:11.497Z,41.01
2022-08-09T16:03:41.795Z,40.79
2022-08-09T16:06:28.321Z,41.29
2022-08-09T16:09:01.152Z,41.42
2022-08-09T16:11:33.282Z,41.21
2022-08-09T16:14:07.182Z,41.32
2022-08-09T16:16:41.915Z,41.30
2022-08-09T16:19:14.066Z,41.22
2022-08-09T16:21:42.991Z,41.07
2022-08-09T16:24:29.882Z,41.42
2022-08-09T16:27:02.325Z,40.92
2022-08-09T16:29:36.649Z,41.06
2022-08-09T16:32:19.257Z,41.61
2022-08-09T16:34:57.818Z,42.46
2022-08-09T16:37:53.118Z,42.68
2022-08-09T16:40:20.387Z,42.81
2022-08-09T16:42:58.491Z,42.93
2022-08-09T16:45:27.140Z,43.44
2022-08-09T16:48:41.448Z,43.98
2022-08-09T16:50:58.726Z,44.51
2022-08-09T16:53:32.242Z,44.69
2022-08-09T16:56:06.000Z,44.85
2022-08-09T16:58:36.096Z,44.78
2022-08-09T17:01:05.466Z,44.74
2022-08-09T17:03:33.367Z,45.05
2022-08-09T17:06:07.161Z,45.28
2022-08-09T17:08:47.087Z,45.54
2022-08-09T17:11:40.723Z,46.29
2022-08-09T17:14:26.577Z,45.97
2022-08-09T17:17:01.541Z,46.43
2022-08-09T17:20:04.915Z,46.92
2022-08-09T17:22:30.892Z,47.00
2022-08-09T17:25:03.678Z,47.97
2022-08-09T17:27:38.238Z,48.37
2022-08-09T17:30:12.983Z,48.43
2022-08-09T17:32:45.453Z,48.92
2022-08-09T17:35:14.843Z,49.36
2022-08-09T17:38:02.453Z,49.33
2022-08-09T17:40:34.497Z,49.77
2022-08-09T17:43:32.003Z,49.89
2022-08-09T17:46:03.580Z,50.76
2022-08-09T17:48:39.779Z,50.88
2022-08-09T17:51:19.114Z,51.51
2022-08-09T17:53:53.009Z,51.78
2022-08-09T17:56:29.213Z,52.36
2022-08-09T17:59:09.002Z,53.21
2022-08-09T18:02:03.682Z,53.61
2022-08-09T18:04:25.274Z,54.50
2022-08-09T18:07:23.748Z,55.43
2022-08-09T18:09:42.790Z,56.25
2022-08-09T18:12:19.407Z,56.55
2022-08-09T18:14:54.490Z,57.05
2022-08-09T18:17:27.739Z,57.81
2022-08-09T18:20:56.209Z,58.31
2022-08-09T18:23:04.960Z,59.21
2022-08-09T18:25:50.310Z,59.08
2022-08-09T18:30:41.930Z,58.54
2022-08-09T18:31:12.039Z,58.70
2022-08-09T18:33:40.616Z,58.89
2022-08-09T18:36:14.351Z,58.98
2022-08-09T18:38:57.553Z,59.09
2022-08-09T18:41:34.371Z,59.36
2022-08-09T18:44:12.992Z,59.66
2022-08-09T18:46:46.010Z,60.39
2022-08-09T18:49:26.218Z,61.15
2022-08-09T18:51:55.151Z,62.12
2022-08-09T18:54:28.806Z,62.64
2022-08-09T18:57:06.069Z,63.39
2022-08-09T18:59:37.516Z,63.80
2022-08-09T19:02:19.107Z,64.09
2022-08-09T19:04:47.447Z,64.16
2022-08-09T19:07:16.514Z,64.22
2022-08-09T19:10:17.387Z,64.61
2022-08-09T19:12:36.699Z,65.14
2022-08-09T19:15:07.079Z,65.83
2022-08-09T19:17:54.560Z,66.36
2022-08-09T19:20:24.548Z,67.09
2022-08-09T19:22:54.447Z,67.30
2022-08-09T19:25:41.951Z,67.64
2022-08-09T19:28:13.452Z,68.15
2022-08-09T19:30:44.609Z,68.50
2022-08-09T19:33:19.465Z,68.91
2022-08-09T19:35:58.035Z,69.44
2022-08-09T19:38:27.726Z,70.00
2022-08-09T19:41:00.431Z,70.41
2022-08-09T19:44:02.160Z,70.61
2022-08-09T19:46:17.061Z,70.68
2022-08-09T19:50:05.369Z,70.87
2022-08-09T19:51:55.741Z,70.86
2022-08-09T19:54:25.080Z,70.79
2022-08-09T19:56:54.057Z,70.99
2022-08-09T19:59:58.343Z,70.96
2022-08-09T20:02:17.168Z,70.95
2022-08-09T20:05:01.171Z,71.08
2022-08-09T20:07:33.975Z,71.26
2022-08-09T20:10:22.103Z,71.56
2022-08-09T20:12:52.033Z,71.77
2022-08-09T20:16:35.773Z,72.10
2022-08-09T20:18:08.714Z,72.20
2022-08-09T20:20:37.861Z,72.28
2022-08-09T20:23:06.924Z,72.46
2022-08-09T20:25:49.572Z,72.48
2022-08-09T20:28:34.275Z,72.27
2022-08-09T20:31:04.982Z,71.85
2022-08-09T20:33:39.043Z,71.09
2022-08-09T20:36:12.947Z,70.67
2022-08-09T20:41:35.003Z,69.97
2022-08-09T20:44:09.978Z,69.95
2022-08-09T20:46:44.744Z,70.01
2022-08-09T20:49:15.846Z,69.80
2022-08-09T20:51:50.360Z,69.85
2022-08-09T20:54:18.520Z,70.06
2022-08-09T20:56:49.716Z,70.02
2022-08-09T20:59:24.995Z,70.33
2022-08-09T21:02:11.871Z,70.66
2022-08-09T21:05:53.445Z,71.22
2022-08-09T21:07:40.223Z,71.79
2022-08-09T21:10:10.932Z,72.27
2022-08-09T21:12:39.713Z,72.82
2022-08-09T21:15:12.553Z,73.28
2022-08-09T21:18:23.294Z,73.66
2022-08-09T21:20:30.708Z,74.06
2022-08-09T21:23:00.549Z,74.02
2022-08-09T21:25:55.559Z,74.24
2022-08-09T21:28:36.579Z,74.68
2022-08-09T21:31:16.653Z,74.68
2022-08-09T21:33:51.668Z,75.19
2022-08-09T21:36:28.088Z,75.80
2022-08-09T21:38:58.803Z,76.43
2022-08-09T21:42:03.854Z,76.73
2022-08-09T21:44:32.959Z,76.90
2022-08-09T21:47:07.640Z,77.01
2022-08-09T21:49:39.248Z,77.05
2022-08-09T21:52:16.969Z,76.84
2022-08-09T21:54:59.706Z,77.05
2022-08-09T21:57:38.495Z,77.31
2022-08-09T22:00:33.574Z,77.71
2022-08-09T22:03:06.972Z,78.04
2022-08-09T22:05:42.474Z,78.85
2022-08-09T22:08:14.664Z,79.74
2022-08-09T22:11:49.842Z,80.51
2022-08-09T22:13:36.624Z,80.99
2022-08-09T22:16:07.146Z,81.74
2022-08-09T22:18:44.173Z,82.38
2022-08-09T22:21:24.358Z,82.97
2022-08-09T22:23:59.345Z,83.45
2022-08-09T22:26:35.512Z,84.16
2022-08-09T22:29:09.897Z,84.64
2022-08-09T22:31:50.421Z,84.98
2022-08-09T22:34:26.696Z,85.52
2022-08-09T22:36:58.962Z,85.61
2022-08-09T22:39:56.360Z,85.77
2022-08-09T22:42:21.430Z,86.19
2022-08-09T22:45:00.286Z,86.47
2022-08-09T22:48:35.577Z,86.85
2022-08-09T22:50:29.751Z,87.32
2022-08-09T22:52:58.807Z,87.52
2022-08-09T22:56:06.465Z,87.39
2022-08-09T22:58:20.299Z,87.55
2022-08-09T23:00:59.165Z,87.75
2022-08-09T23:04:02.535Z,88.11
2022-08-09T23:06:14.705Z,88.64
2022-08-09T23:09:00.505Z,88.86
2022-08-09T23:11:28.092Z,89.07
2022-08-09T23:13:55.903Z,89.40
2022-08-09T23:16:23.759Z,89.62
2022-08-09T23:18:51.394Z,89.88
2022-08-09T23:21:25.184Z,89.87
2022-08-09T23:24:05.496Z,89.80
2022-08-09T23:26:39.334Z,90.24
2022-08-09T23:29:11.639Z,90.23
2022-08-09T23:31:42.678Z,90.26
2022-08-09T23:34:10.803Z,90.41
2022-08-09T23:36:38.412Z,90.87
2022-08-09T23:39:07.877Z,91.23
2022-08-09T23:41:36.271Z,91.45
2022-08-09T23:44:04.377Z,91.64
2022-08-09T23:46:32.973Z,91.88
2022-08-09T23:49:01.029Z,92.26
2022-08-09T23:51:29.090Z,92.57
2022-08-09T23:54:00.729Z,92.73
2022-08-09T23:56:53.615Z,93.15
2022-08-09T23:59:24.202Z,93.33
